Seymour Johnson Air Force Base
KGSB : now visible

Airfield :











YOU CAN JOIN US ON...

 
LOGIN :

Register | Disclaimer

   EN    FR    IT 

 









Legend :    VFR   Marginal VFR   IFR   Intensive IFR   Very Intensive IFR
Visi :
Ceiling :
>= 8 km
>= 3000ft
5 to 8 km
1000 to 3000 ft
1500m to 5 km
500 to 1000 ft
800 to 1500m
200 to 500 ft
< 800m
< 200 ft
Symbols :   Thunderstorms  Fog  Heavy snow  Heavy precipitations  Wind > 20 kt






- Airport Elevation : 109 ft


KGSB - Seymour Johnson Air Force Base

CURRENT METAR :
  • 221356Z AUTO 06004KT 10SM CLR 22/19 A3022 RMK AO2 SLP236 T02160186 $

EXPIRED METARs :
  • 221256Z AUTO 03004KT 10SM CLR 19/18 A3022 RMK AO2 SLP236 T01920184 $
  • 221155Z 00000KT 3SM BR BKN220 17/17 A3021 RMK SLP233 T01720172 10188 20163 52010 $

TAF AMD TAF KGSB
Valid from the 22 at 14:00 until the 23 at 18:00 UTC


221412Z 2214/2318 06004KT 9999 BKN200 QNH3022INS
BECMG 2306/2307 03003KT 1600 BR BKN005 QNH3019INS
BECMG 2313/2314 04006KT 9999 NSW SCT020 SCT150 QNH3017INS TX27/2220Z TN16/2310Z
KZDC FIR / North America



MET'MAP, your aeronautical weather chart ! - Copyright ORBIFLY December 2007 - Disclaimer

ORBIFLY MET'MAP TEAM :

Programming & Development : Alexandra Zaïnal
Concept & original design : Baudouin d'Aumeries
Assistance for programming : Marc-Olivier Méhu
Technical & hardware support : Manuel Goepfert

Contact : metmap@orbifly.com




SOURCES & CREDITS :

   NOAA       Earth
Advisory